x

La Perouse Bank (46206) Wave Buoy

5:00 - Wed 4th Mar 2015 All times are PST. -8 hours from GMT.

  • Sig Wave height 2.3ft
  • Peak Period 12s
  • Wind
    9mph
  • Sea Temp 49°f
  • Ar Temp 46°f
  • Sea Pressure 1025.6mb
  • La Perouse Bank
  • La Perouse Bank

More Historic Weather Station data

Upgrade to MSW Pro to gain access to the past 30 days of data for over 8000 Wavebouys and Weather Stations around the globe.

Join Pro

Comparision Forecast

View Surf forecast
   
Qua 03/04 5:00 2.5ft 12s 9
mph
1025.6mb 49f 46f
4:00 2.5ft 12s 4 7 mph 1025.6mb 49f 46f
3:00 2.5ft 12s 4 7 mph 1025.5mb 49f 47f
2:00 2.5ft 12s 4
mph
1025.5mb 49f 47f
1:00 2ft 12s 4
mph
1025.2mb 49f 47f
12:00 2.5ft 12s 4
mph
1024.9mb 49f 47f
Ter 03/03 11:00 2.5ft 11s 7
mph
1024.6mb 49f 48f
10:00 2.5ft 12s 7 9 mph 1024.5mb 50f 48f
9:00 2.5ft 12s 9
mph
1024.6mb 50f 48f
8:00 2.5ft 12s 7
mph
1024.5mb 50f 48f
7:00 2.5ft 12s 4 7 mph 1024.5mb 50f 47f
6:00 2.5ft 11s 4
mph
1024.6mb 50f 48f
5:00 3ft 12s 2
mph
1024.5mb 50f 49f
4:00 3ft 12s 4 7 mph 1024.5mb 50f 48f
3:00 3ft 14s 7
mph
1024.6mb 50f 48f
2:00 3.5ft 12s 9 11 mph 1024.8mb 50f 48f
1:00 3.5ft 14s 13
mph
1025mb 50f 47f
12:00 3.5ft 5s 11 13 mph 1025mb 49f 47f
11:00 4ft 11s 13 18 mph 1024.8mb 49f 47f
10:00 4.5ft 5s 13 18 mph 1024.8mb 49f 46f
9:00 5ft 5s 16 20 mph 1025.1mb 49f 46f
8:00 4.5ft 5s 18 20 mph 1024.7mb 50f 47f
7:00 4.5ft 12s 18 20 mph 1024.2mb 50f 47f
6:00 4ft 8s 20 25 mph 1024mb 50f 47f
5:00 4ft 8s 18 22 mph 1023.7mb 50f 47f
4:00 4.5ft 8s 16 18 mph 1023.2mb 50f 48f
3:00 4.5ft 8s 18 20 mph 1023.3mb 50f 48f
2:00 4ft 9s 9 11 mph 1023.2mb 50f 47f
1:00 3.5ft 8s 4 7 mph 1022.8mb 50f 48f
12:00 3.5ft 8s 4 7 mph 1022.4mb 50f 48f
Seg 03/02 11:00 4.5ft 8s  -  mph 1021.9mb 50f 48f
10:00 4.5ft 9s  -  mph 1021.5mb 50f 48f
9:00 4.5ft 9s  -  2 mph 1021.1mb 50f 48f
8:00 4.5ft 8s 4
mph
1020.7mb 50f 48f
7:00 5ft 8s 4 7 mph 1020.4mb 50f 48f
6:00 5ft 9s 4 7 mph 1020.1mb 50f 49f
5:00 5ft 9s 4 7 mph 1019.8mb 51f 49f
4:00 5ft 9s 2 4 mph 1019.8mb 51f 50f
3:00 5ft 10s 4 7 mph 1019.6mb 51f 49f
2:00 5ft 9s 2 4 mph 1019.9mb 51f 49f
1:00 5ft 8s 2 4 mph 1020mb 50f 48f
12:00 5ft 8s 2 4 mph 1020.1mb 50f 48f
11:00 5ft 9s  -  2 mph 1019.9mb 50f 48f
10:00 5ft 8s  -  2 mph 1020.1mb 49f 48f
9:00 5ft 8s 2 4 mph 1019.9mb 50f 46f
8:00 5.5ft 8s 2 4 mph 1019.5mb 50f 45f
7:00 5ft 8s 2 4 mph 1019mb 50f 45f
6:00 5.5ft 8s 4 7 mph 1018.7mb 50f 45f
5:00 6ft 8s 4 7 mph 1018.5mb 50f 45f
4:00 6ft 8s  -  2 mph 1018.3mb 50f 45f
3:00 5.5ft 8s 7 9 mph 1017.7mb 50f 45f
2:00 6ft 7s 4 7 mph 1017.9mb 50f 45f
1:00 5.5ft 8s 9 11 mph 1017.1mb 50f 45f
12:00 5.5ft 8s 7 9 mph 1017mb 50f 45f
Dom 03/01 11:00 5ft 8s 9 13 mph 1016.9mb 50f 45f
10:00 5.5ft 7s 11 13 mph 1016.7mb 50f 46f
9:00 5.5ft 7s 20 22 mph 1016.2mb 50f 47f
8:00 5.5ft 5s 20 25 mph 1016.5mb 50f 47f
7:00 5ft 8s 16 20 mph 1017.1mb 50f 47f
6:00 5ft 7s 16 20 mph 1017.6mb 50f 46f
5:00 5.5ft 7s 13 16 mph 1018mb 50f 45f
4:00 5ft 7s 11 13 mph 1018.9mb 50f 45f
3:00 4.5ft 8s 16 18 mph 1019.7mb 51f 45f
2:00 4ft 7s 9 13 mph 1020.5mb 51f 48f
1:00 4.5ft 7s 4
mph
1021.4mb 51f 47f
12:00 4ft 8s  -  4 mph 1022.5mb 50f 47f
11:00 4.5ft 8s 2
mph
1022.9mb 51f 47f
10:00 4ft 7s 4 7 mph 1023.1mb 50f 47f
9:00 3.5ft 7s 4
mph
1023.4mb 50f 47f
8:00 4ft 8s 4 7 mph 1023.6mb 50f 47f
7:00 4.5ft 8s 7 9 mph 1023.3mb 50f 46f
6:00 4.5ft 8s 4 7 mph 1023.5mb 50f 47f
5:00 4ft 8s 4 7 mph 1023.9mb 50f 47f
4:00 4ft 8s 7 9 mph 1023.7mb 50f 47f
3:00 3.5ft 8s 7 9 mph 1023.8mb 50f 47f
2:00 4ft 8s 9 11 mph 1023.9mb 50f 47f
1:00 4.5ft 8s 9 13 mph 1024.2mb 50f 48f
12:00 4.5ft 9s 2 4 mph 1024.3mb 50f 48f
Sáb 02/28 11:00 4ft 8s  -  2 mph 1024.2mb 50f 48f
10:00 4ft 8s 4
mph
1024.1mb 50f 49f
9:00 3.5ft 8s 7 9 mph 1023.7mb 50f 49f
8:00 4ft 9s 7 9 mph 1023.7mb 51f 49f
7:00 4ft 8s 7 9 mph 1023.7mb 51f 49f
6:00 4.5ft 9s 7 9 mph 1023.7mb 51f 49f
5:00 4.5ft 9s 4 7 mph 1024mb 52f 50f
4:00 4.5ft 8s 4 7 mph 1024.3mb 52f 50f